createdAt,value
2019-03-23T00:01:30.084Z,8.86
2019-03-23T00:03:59.971Z,8.25
2019-03-23T00:06:31.029Z,8.50
2019-03-23T00:09:18.824Z,8.76
2019-03-23T00:11:47.895Z,8.93
2019-03-23T00:14:17.776Z,9.14
2019-03-23T00:16:47.764Z,9.14
2019-03-23T00:19:17.672Z,9.69
2019-03-23T00:21:47.601Z,9.21
2019-03-23T00:27:01.105Z,9.34
2019-03-23T00:29:31.017Z,8.89
2019-03-23T00:32:00.221Z,8.98
2019-03-23T00:37:31.989Z,8.35
2019-03-23T00:40:01.892Z,8.89
2019-03-23T00:42:31.844Z,8.54
2019-03-23T00:45:01.760Z,7.89
2019-03-23T00:47:31.641Z,7.71
2019-03-23T00:50:01.516Z,7.86
2019-03-23T00:55:14.658Z,8.24
2019-03-23T00:57:44.569Z,7.98
2019-03-23T01:03:17.144Z,8.36
2019-03-23T01:05:47.023Z,8.48
2019-03-23T01:08:16.314Z,7.57
2019-03-23T01:10:46.178Z,7.38
2019-03-23T01:13:16.069Z,8.44
2019-03-23T01:15:48.088Z,8.27
2019-03-23T01:18:35.838Z,8.44
2019-03-23T01:21:05.709Z,7.99
2019-03-23T01:23:35.583Z,7.79
2019-03-23T01:26:06.021Z,8.34
2019-03-23T01:28:36.019Z,8.39
2019-03-23T01:31:05.905Z,8.67
2019-03-23T01:33:35.056Z,7.71
2019-03-23T01:36:04.244Z,7.43
2019-03-23T01:38:34.321Z,7.42
2019-03-23T01:41:14.643Z,7.24
2019-03-23T01:43:44.523Z,7.36
2019-03-23T01:46:14.422Z,7.26
2019-03-23T01:48:44.298Z,7.03
2019-03-23T01:51:14.247Z,7.35
2019-03-23T01:53:44.119Z,7.20
2019-03-23T01:56:13.975Z,7.25
2019-03-23T01:58:43.960Z,6.93
2019-03-23T02:01:13.923Z,7.04
2019-03-23T02:03:43.778Z,7.01
2019-03-23T02:06:12.942Z,7.48
2019-03-23T02:08:42.858Z,7.20
2019-03-23T02:11:12.743Z,7.07
2019-03-23T02:13:42.621Z,7.65
2019-03-23T02:16:12.543Z,7.22
2019-03-23T02:18:42.387Z,7.30
2019-03-23T02:21:12.303Z,6.98
2019-03-23T02:23:42.176Z,7.42
2019-03-23T02:26:12.073Z,8.00
2019-03-23T02:28:41.952Z,7.72
2019-03-23T02:31:11.839Z,8.18
2019-03-23T02:33:41.746Z,8.23
2019-03-23T02:36:11.628Z,7.76
2019-03-23T02:38:41.546Z,7.24
2019-03-23T02:41:11.414Z,7.36
2019-03-23T02:43:41.380Z,8.13
2019-03-23T02:46:11.239Z,7.49
2019-03-23T02:48:41.116Z,6.93
2019-03-23T02:51:11.042Z,6.78
2019-03-23T02:53:40.923Z,6.96
2019-03-23T02:56:10.830Z,7.01
2019-03-23T02:58:40.697Z,7.16
2019-03-23T03:01:10.586Z,7.10
2019-03-23T03:03:40.464Z,7.05
2019-03-23T03:06:10.359Z,6.73
2019-03-23T03:08:40.259Z,6.78
2019-03-23T03:11:10.109Z,7.40
2019-03-23T03:13:39.992Z,7.05
2019-03-23T03:16:09.893Z,7.44
2019-03-23T03:18:39.738Z,8.24
2019-03-23T03:21:09.623Z,7.75
2019-03-23T03:23:39.499Z,7.82
2019-03-23T03:26:09.368Z,7.46
2019-03-23T03:28:39.261Z,6.88
2019-03-23T03:31:08.318Z,6.74
2019-03-23T03:33:38.221Z,6.59
2019-03-23T03:36:07.257Z,6.77
2019-03-23T03:38:37.210Z,6.80
2019-03-23T03:41:07.076Z,6.97
2019-03-23T03:43:36.963Z,6.51
2019-03-23T03:46:06.833Z,6.59
2019-03-23T03:48:36.789Z,7.34
2019-03-23T03:51:06.681Z,6.73
2019-03-23T03:53:36.550Z,6.79
2019-03-23T03:56:06.425Z,6.56
2019-03-23T03:58:36.312Z,6.47
2019-03-23T04:01:06.196Z,6.27
2019-03-23T04:03:36.194Z,6.23
2019-03-23T04:06:06.041Z,6.31
2019-03-23T04:08:35.953Z,6.69
2019-03-23T04:11:25.278Z,6.38
2019-03-23T04:13:54.343Z,6.49
2019-03-23T04:16:24.215Z,6.51
2019-03-23T04:18:54.092Z,6.67
2019-03-23T04:21:23.991Z,6.50
2019-03-23T04:23:53.854Z,6.43
2019-03-23T04:26:23.723Z,6.60
2019-03-23T04:28:53.590Z,6.68
2019-03-23T04:31:23.474Z,6.56
2019-03-23T04:33:53.339Z,6.44
2019-03-23T04:36:35.540Z,6.28
2019-03-23T04:42:20.972Z,6.37
2019-03-23T04:44:50.247Z,6.22
2019-03-23T04:55:50.931Z,6.37
2019-03-23T04:58:20.823Z,6.83
2019-03-23T05:00:50.707Z,6.65
2019-03-23T05:03:20.677Z,6.60
2019-03-23T05:05:50.544Z,6.64
2019-03-23T05:08:20.425Z,6.51
2019-03-23T05:10:50.286Z,6.33
2019-03-23T05:13:20.168Z,6.70
2019-03-23T05:15:50.036Z,6.94
2019-03-23T05:18:20.034Z,6.58
2019-03-23T05:20:49.899Z,7.25
2019-03-23T05:23:19.762Z,7.07
2019-03-23T05:28:52.452Z,6.84
2019-03-23T05:34:16.240Z,7.25
2019-03-23T05:36:46.112Z,7.21
2019-03-23T05:41:59.445Z,7.59
2019-03-23T05:44:29.323Z,7.60
2019-03-23T05:46:59.172Z,8.17
2019-03-23T05:49:29.060Z,7.72
2019-03-23T05:51:58.229Z,7.97
2019-03-23T05:54:28.104Z,7.97
2019-03-23T05:56:58.098Z,8.57
2019-03-23T05:59:27.272Z,8.89
2019-03-23T06:01:56.320Z,9.32
2019-03-23T06:04:26.233Z,9.02
2019-03-23T06:06:56.107Z,8.88
2019-03-23T06:09:25.268Z,9.31
2019-03-23T06:11:55.160Z,9.16
2019-03-23T06:14:25.064Z,9.36
2019-03-23T06:16:54.944Z,9.43
2019-03-23T06:19:24.818Z,9.24
2019-03-23T06:21:54.735Z,9.37
2019-03-23T06:24:24.654Z,9.46
2019-03-23T06:26:54.566Z,9.67
2019-03-23T06:29:24.496Z,9.80
2019-03-23T06:31:54.383Z,10.01
2019-03-23T06:34:23.545Z,10.18
2019-03-23T06:36:53.416Z,10.37
2019-03-23T06:39:23.283Z,10.57
2019-03-23T06:41:53.179Z,10.67
2019-03-23T06:44:23.064Z,10.83
2019-03-23T06:46:52.931Z,10.98
2019-03-23T06:49:22.831Z,11.16
2019-03-23T06:51:52.711Z,11.22
2019-03-23T06:54:22.587Z,11.33
2019-03-23T06:56:52.554Z,11.46
2019-03-23T06:59:22.431Z,11.56
2019-03-23T07:01:52.284Z,11.68
2019-03-23T07:04:22.165Z,11.81
2019-03-23T07:06:51.245Z,11.90
2019-03-23T07:09:21.121Z,12.02
2019-03-23T07:11:51.018Z,12.17
2019-03-23T07:14:20.890Z,12.20
2019-03-23T07:16:50.808Z,12.36
2019-03-23T07:19:20.744Z,12.54
2019-03-23T07:21:50.630Z,12.63
2019-03-23T07:24:20.528Z,12.73
2019-03-23T07:26:50.418Z,12.78
2019-03-23T07:29:20.545Z,12.97
2019-03-23T07:31:50.398Z,13.05
2019-03-23T07:34:20.600Z,13.26
2019-03-23T07:36:50.547Z,13.43
2019-03-23T07:39:27.315Z,13.42
2019-03-23T07:42:10.210Z,13.59
2019-03-23T07:44:40.215Z,13.56
2019-03-23T07:47:10.247Z,13.53
2019-03-23T07:49:40.133Z,13.44
2019-03-23T07:52:10.269Z,13.34
2019-03-23T07:54:40.252Z,13.55
2019-03-23T08:00:15.254Z,13.75
2019-03-23T08:02:44.760Z,13.63
2019-03-23T08:05:14.848Z,13.66
2019-03-23T08:07:45.022Z,13.74
2019-03-23T08:10:42.259Z,13.55
2019-03-23T08:13:11.732Z,13.55
2019-03-23T08:15:41.895Z,13.76
2019-03-23T08:18:11.819Z,13.87
2019-03-23T08:20:41.893Z,13.83
2019-03-23T08:23:11.936Z,13.99
2019-03-23T08:25:42.019Z,13.96
2019-03-23T08:28:11.936Z,13.96
2019-03-23T08:30:41.847Z,14.13
2019-03-23T08:33:12.144Z,14.06
2019-03-23T08:35:42.092Z,14.02
2019-03-23T08:38:11.979Z,14.27
2019-03-23T08:40:41.949Z,14.44
2019-03-23T08:43:11.894Z,14.62
2019-03-23T08:45:41.762Z,14.65
2019-03-23T08:48:11.877Z,14.58
2019-03-23T08:50:41.869Z,14.74
2019-03-23T08:53:11.807Z,14.70
2019-03-23T08:55:42.210Z,15.06
2019-03-23T08:58:12.246Z,14.91
2019-03-23T09:00:42.516Z,14.95
2019-03-23T09:03:11.741Z,14.83
2019-03-23T09:05:41.985Z,14.70
2019-03-23T09:08:11.955Z,14.90
2019-03-23T09:10:42.120Z,14.81
2019-03-23T09:13:12.040Z,15.00
2019-03-23T09:15:42.044Z,15.12
2019-03-23T09:18:11.971Z,15.09
2019-03-23T09:20:41.902Z,15.22
2019-03-23T09:23:11.778Z,15.22
2019-03-23T09:25:41.670Z,15.30
2019-03-23T09:28:11.665Z,15.23
2019-03-23T09:30:41.566Z,15.18
2019-03-23T09:33:11.465Z,15.33
2019-03-23T09:35:41.585Z,15.31
2019-03-23T09:38:11.631Z,15.64
2019-03-23T09:40:41.619Z,15.86
2019-03-23T09:43:11.547Z,15.82
2019-03-23T09:45:41.452Z,15.44
2019-03-23T09:48:11.495Z,15.47
2019-03-23T09:50:41.880Z,15.62
2019-03-23T09:53:12.024Z,15.53
2019-03-23T09:55:41.988Z,15.64
2019-03-23T09:58:12.002Z,15.77
2019-03-23T10:00:41.884Z,15.74
2019-03-23T10:03:11.898Z,15.89
2019-03-23T10:05:42.052Z,15.77
2019-03-23T10:08:11.944Z,15.92
2019-03-23T10:10:41.839Z,16.02
2019-03-23T10:13:11.903Z,16.10
2019-03-23T10:15:41.152Z,16.12
2019-03-23T10:18:11.732Z,16.16
2019-03-23T10:20:42.247Z,16.00
2019-03-23T10:23:12.340Z,16.22
2019-03-23T10:25:42.342Z,16.26
2019-03-23T10:28:12.312Z,16.20
2019-03-23T10:30:42.272Z,16.23
2019-03-23T10:33:12.301Z,16.24
2019-03-23T10:35:46.503Z,16.41
2019-03-23T10:38:15.986Z,16.40
2019-03-23T10:40:45.974Z,16.59
2019-03-23T10:43:15.944Z,16.83
2019-03-23T10:45:45.887Z,17.15
2019-03-23T10:48:15.961Z,16.61
2019-03-23T10:50:45.890Z,16.64
2019-03-23T10:53:22.865Z,16.64
2019-03-23T10:56:05.616Z,16.80
2019-03-23T10:58:35.818Z,16.84
2019-03-23T11:01:06.286Z,16.94
2019-03-23T11:03:36.260Z,17.05
2019-03-23T11:06:05.903Z,16.82
2019-03-23T11:08:36.157Z,17.09
2019-03-23T11:11:06.139Z,17.29
2019-03-23T11:13:36.029Z,17.21
2019-03-23T11:16:06.494Z,17.27
2019-03-23T11:18:37.824Z,17.47
2019-03-23T11:21:26.241Z,17.51
2019-03-23T11:23:56.152Z,17.68
2019-03-23T11:26:28.058Z,17.81
2019-03-23T11:29:15.864Z,17.49
2019-03-23T11:31:45.753Z,17.53
2019-03-23T11:34:18.056Z,17.52
2019-03-23T11:37:05.585Z,17.51
2019-03-23T11:39:35.565Z,17.44
2019-03-23T11:42:05.841Z,17.57
2019-03-23T11:44:35.893Z,17.56
2019-03-23T11:47:05.815Z,17.59
2019-03-23T11:49:35.844Z,17.63
2019-03-23T11:52:05.761Z,17.61
2019-03-23T11:54:35.743Z,17.60
2019-03-23T11:57:05.914Z,17.64
2019-03-23T11:59:35.903Z,17.60
2019-03-23T12:02:05.798Z,17.47
2019-03-23T12:04:35.987Z,17.61
2019-03-23T12:07:06.129Z,17.68
2019-03-23T12:09:36.314Z,17.68
2019-03-23T12:12:06.201Z,17.81
2019-03-23T12:14:36.180Z,17.60
2019-03-23T12:17:06.426Z,17.62
2019-03-23T12:19:36.480Z,17.66
2019-03-23T12:22:06.740Z,17.58
2019-03-23T12:24:37.033Z,17.55
2019-03-23T12:27:07.005Z,17.47
2019-03-23T12:32:20.074Z,17.44
2019-03-23T12:34:50.274Z,17.42
2019-03-23T12:37:20.155Z,17.40
2019-03-23T12:39:50.311Z,17.50
2019-03-23T12:42:20.178Z,17.48
2019-03-23T12:44:50.054Z,17.54
2019-03-23T12:47:20.070Z,17.47
2019-03-23T12:49:50.287Z,17.53
2019-03-23T12:52:20.227Z,17.52
2019-03-23T12:54:50.106Z,17.56
2019-03-23T12:57:20.017Z,17.74
2019-03-23T12:59:49.932Z,17.60
2019-03-23T13:02:19.796Z,17.71
2019-03-23T13:04:49.702Z,17.74
2019-03-23T13:07:19.615Z,17.90
2019-03-23T13:09:49.614Z,17.98
2019-03-23T13:17:47.773Z,17.68
2019-03-23T13:20:17.695Z,17.73
2019-03-23T13:22:47.697Z,17.66
2019-03-23T13:25:17.658Z,17.65
2019-03-23T13:27:47.547Z,17.69
2019-03-23T13:33:20.491Z,17.78
2019-03-23T13:35:50.373Z,17.72
2019-03-23T13:38:20.260Z,17.76
2019-03-23T13:40:50.200Z,17.82
2019-03-23T13:43:20.182Z,17.69
2019-03-23T13:45:50.123Z,17.78
2019-03-23T13:48:19.999Z,18.04
2019-03-23T13:50:49.904Z,18.11
2019-03-23T13:53:19.781Z,18.28
2019-03-23T13:55:49.689Z,18.17
2019-03-23T13:58:19.754Z,18.18
2019-03-23T14:00:49.869Z,18.16
2019-03-23T14:03:20.162Z,18.19
2019-03-23T14:05:50.727Z,18.17
2019-03-23T14:08:20.631Z,18.12
2019-03-23T14:10:50.797Z,18.11
2019-03-23T14:13:20.871Z,18.22
2019-03-23T14:15:50.926Z,18.20
2019-03-23T14:18:21.120Z,18.26
2019-03-23T14:20:51.811Z,18.12
2019-03-23T14:26:10.758Z,18.09
2019-03-23T14:28:40.682Z,18.18
2019-03-23T14:31:11.415Z,18.09
2019-03-23T14:33:41.318Z,17.90
2019-03-23T14:36:11.469Z,17.99
2019-03-23T14:38:41.434Z,17.94
2019-03-23T14:41:11.398Z,17.94
2019-03-23T14:43:40.854Z,18.02
2019-03-23T14:46:10.815Z,17.98
2019-03-23T14:48:40.780Z,18.05
2019-03-23T14:51:10.822Z,17.97
2019-03-23T14:53:41.604Z,17.92
2019-03-23T14:59:13.975Z,17.89
2019-03-23T15:01:43.953Z,17.82
2019-03-23T15:07:17.018Z,17.76
2019-03-23T15:09:46.949Z,17.70
2019-03-23T15:12:16.129Z,17.74
2019-03-23T15:17:49.238Z,17.75
2019-03-23T15:20:39.079Z,17.68
2019-03-23T15:25:51.103Z,17.73
2019-03-23T15:28:21.239Z,17.74
2019-03-23T15:30:51.129Z,17.80
2019-03-23T15:33:21.363Z,17.84
2019-03-23T15:35:51.487Z,17.79
2019-03-23T15:38:21.597Z,17.78
2019-03-23T15:40:51.619Z,17.76
2019-03-23T15:43:21.704Z,17.82
2019-03-23T15:45:52.069Z,17.84
2019-03-23T15:48:22.094Z,17.78
2019-03-23T15:50:52.104Z,17.76
2019-03-23T15:53:22.066Z,17.77
2019-03-23T15:55:52.259Z,17.74
2019-03-23T15:58:22.337Z,17.75
2019-03-23T16:00:52.790Z,17.71
2019-03-23T16:03:22.714Z,17.65
2019-03-23T16:05:52.665Z,17.72
2019-03-23T16:08:22.902Z,17.72
2019-03-23T16:10:53.075Z,17.70
2019-03-23T16:13:23.013Z,17.63
2019-03-23T16:15:52.888Z,17.76
2019-03-23T16:18:22.769Z,17.85
2019-03-23T16:20:52.710Z,17.92
2019-03-23T16:23:22.586Z,17.90
2019-03-23T16:25:52.484Z,17.93
2019-03-23T16:28:22.354Z,17.92
2019-03-23T16:30:52.222Z,17.89
2019-03-23T16:33:22.083Z,17.85
2019-03-23T16:35:52.073Z,17.88
2019-03-23T16:38:21.935Z,17.87
2019-03-23T16:40:51.827Z,17.80
2019-03-23T16:43:21.710Z,17.69
2019-03-23T16:45:51.621Z,17.65
2019-03-23T16:48:21.495Z,17.68
2019-03-23T16:50:51.385Z,17.65
2019-03-23T16:53:21.250Z,17.55
2019-03-23T16:55:51.107Z,17.56
2019-03-23T16:58:20.991Z,17.48
2019-03-23T17:00:50.993Z,17.57
2019-03-23T17:03:20.855Z,17.65
2019-03-23T17:05:50.743Z,19.04
2019-03-23T17:08:20.602Z,19.38
2019-03-23T17:10:50.551Z,19.57
2019-03-23T17:13:19.633Z,19.70
2019-03-23T17:15:49.483Z,19.79
2019-03-23T17:18:19.359Z,19.71
2019-03-23T17:20:49.228Z,17.64
2019-03-23T17:23:30.955Z,17.13
2019-03-23T17:26:00.158Z,16.95
2019-03-23T17:28:30.181Z,16.62
2019-03-23T17:31:00.759Z,16.31
2019-03-23T17:33:30.694Z,16.44
2019-03-23T17:36:00.841Z,16.17
2019-03-23T17:38:31.002Z,15.88
2019-03-23T17:41:00.940Z,15.86
2019-03-23T17:43:31.056Z,15.72
2019-03-23T17:46:00.960Z,16.04
2019-03-23T17:48:30.925Z,15.87
2019-03-23T17:51:00.129Z,15.64
2019-03-23T17:53:29.995Z,15.71
2019-03-23T17:56:00.018Z,15.77
2019-03-23T17:58:29.901Z,16.08
2019-03-23T18:03:43.343Z,16.26
2019-03-23T18:06:13.218Z,16.25
2019-03-23T18:08:43.108Z,16.13
2019-03-23T18:11:12.976Z,15.91
2019-03-23T18:13:42.853Z,15.67
2019-03-23T18:16:12.741Z,15.51
2019-03-23T18:18:42.659Z,15.59
2019-03-23T18:21:12.556Z,15.71
2019-03-23T18:23:42.461Z,15.03
2019-03-23T18:26:12.986Z,14.90
2019-03-23T18:28:42.218Z,14.95
2019-03-23T18:31:24.351Z,14.95
2019-03-23T18:33:53.527Z,14.86
2019-03-23T18:36:23.497Z,14.89
2019-03-23T18:38:53.397Z,14.56
2019-03-23T18:41:23.433Z,14.60
2019-03-23T18:43:53.855Z,14.83
2019-03-23T18:46:24.683Z,15.01
2019-03-23T18:49:13.583Z,14.51
2019-03-23T18:51:43.588Z,14.49
2019-03-23T18:54:12.922Z,14.60
2019-03-23T18:56:42.901Z,14.81
2019-03-23T18:59:13.260Z,14.78
2019-03-23T19:01:43.183Z,14.47
2019-03-23T19:04:13.180Z,14.46
2019-03-23T19:06:43.247Z,14.25
2019-03-23T19:09:13.117Z,14.48
2019-03-23T19:11:43.454Z,14.45
2019-03-23T19:14:13.630Z,14.30
2019-03-23T19:16:43.805Z,13.95
2019-03-23T19:19:13.222Z,13.91
2019-03-23T19:21:43.231Z,13.87
2019-03-23T19:24:13.133Z,13.94
2019-03-23T19:26:43.271Z,13.68
2019-03-23T19:29:13.422Z,13.68
2019-03-23T19:31:43.315Z,13.72
2019-03-23T19:34:13.503Z,13.81
2019-03-23T19:36:43.461Z,13.54
2019-03-23T19:39:13.360Z,14.00
2019-03-23T19:41:43.544Z,13.90
2019-03-23T19:44:13.558Z,13.47
2019-03-23T19:46:43.544Z,13.77
2019-03-23T19:49:13.425Z,14.00
2019-03-23T19:51:43.312Z,13.85
2019-03-23T19:54:13.331Z,13.49
2019-03-23T19:56:43.415Z,13.88
2019-03-23T19:59:13.348Z,13.54
2019-03-23T20:01:43.212Z,13.41
2019-03-23T20:04:12.380Z,13.28
2019-03-23T20:06:42.303Z,13.35
2019-03-23T20:09:12.256Z,13.54
2019-03-23T20:11:42.261Z,13.46
2019-03-23T20:14:12.309Z,13.46
2019-03-23T20:16:42.271Z,13.41
2019-03-23T20:19:12.191Z,13.12
2019-03-23T20:21:42.194Z,13.33
2019-03-23T20:24:12.156Z,13.15
2019-03-23T20:26:42.164Z,13.26
2019-03-23T20:29:12.084Z,13.36
2019-03-23T20:31:42.100Z,13.39
2019-03-23T20:34:12.126Z,13.15
2019-03-23T20:40:03.864Z,13.44
2019-03-23T20:42:33.727Z,12.86
2019-03-23T20:45:04.955Z,12.83
2019-03-23T20:47:34.361Z,12.80
2019-03-23T20:50:04.787Z,13.07
2019-03-23T20:52:46.543Z,13.29
2019-03-23T20:55:34.902Z,13.34
2019-03-23T20:58:04.856Z,13.22
2019-03-23T21:00:34.860Z,13.33
2019-03-23T21:03:04.954Z,13.60
2019-03-23T21:05:34.846Z,13.34
2019-03-23T21:08:04.802Z,13.29
2019-03-23T21:10:34.687Z,13.17
2019-03-23T21:13:04.552Z,13.08
2019-03-23T21:15:34.458Z,13.17
2019-03-23T21:18:04.336Z,13.19
2019-03-23T21:20:34.224Z,13.20
2019-03-23T21:23:04.226Z,12.77
2019-03-23T21:25:34.365Z,12.85
2019-03-23T21:28:04.428Z,13.19
2019-03-23T21:30:37.135Z,12.98
2019-03-23T21:33:07.120Z,13.20
2019-03-23T21:35:37.002Z,13.02
2019-03-23T21:38:06.968Z,13.16
2019-03-23T21:40:36.849Z,13.10
2019-03-23T21:43:06.826Z,12.97
2019-03-23T21:45:36.705Z,12.58
2019-03-23T21:48:06.647Z,12.17
2019-03-23T21:50:46.809Z,12.45
2019-03-23T21:53:26.447Z,12.35
2019-03-23T21:55:56.345Z,12.36
2019-03-23T21:58:26.514Z,12.18
2019-03-23T22:00:56.366Z,12.24
2019-03-23T22:03:25.524Z,12.56
2019-03-23T22:05:55.384Z,12.41
2019-03-23T22:08:25.300Z,12.48
2019-03-23T22:10:55.147Z,12.71
2019-03-23T22:13:24.989Z,12.08
2019-03-23T22:15:54.871Z,12.27
2019-03-23T22:18:23.937Z,11.92
2019-03-23T22:20:53.822Z,11.88
2019-03-23T22:23:23.728Z,12.53
2019-03-23T22:25:53.605Z,12.45
2019-03-23T22:28:23.482Z,12.46
2019-03-23T22:30:52.566Z,12.20
2019-03-23T22:33:22.497Z,11.57
2019-03-23T22:36:04.593Z,11.65
2019-03-23T22:38:45.694Z,11.93
2019-03-23T22:41:26.785Z,11.69
2019-03-23T22:52:38.011Z,10.97
2019-03-23T22:58:02.952Z,11.32
2019-03-23T23:00:43.928Z,11.15
2019-03-23T23:06:30.276Z,10.89
2019-03-23T23:15:17.631Z,10.96
2019-03-23T23:20:30.463Z,11.00
2019-03-23T23:26:14.104Z,11.08
2019-03-23T23:28:43.200Z,10.66
2019-03-23T23:31:13.083Z,10.66
2019-03-23T23:33:42.946Z,10.60
2019-03-23T23:36:12.120Z,10.48
2019-03-23T23:38:42.023Z,10.56
2019-03-23T23:41:11.904Z,10.72
2019-03-23T23:43:41.769Z,10.57
2019-03-23T23:46:11.664Z,10.21
2019-03-23T23:48:50.863Z,9.91
2019-03-23T23:51:31.323Z,10.29
2019-03-23T23:54:01.203Z,10.33
2019-03-23T23:56:31.102Z,10.10
2019-03-23T23:59:00.972Z,9.72
